sensor_id;sensor_type;location;lat;lon;timestamp;P1;durP1;ratioP1;P2;durP2;ratioP2
31424;SDS011;18054;51.572;7.372;2023-04-01T00:01:57;6.03;;;1.38;;
31424;SDS011;18054;51.572;7.372;2023-04-01T00:04:25;9.68;;;1.40;;
31424;SDS011;18054;51.572;7.372;2023-04-01T00:06:54;5.93;;;1.15;;
31424;SDS011;18054;51.572;7.372;2023-04-01T00:09:23;5.47;;;1.58;;
31424;SDS011;18054;51.572;7.372;2023-04-01T00:11:55;6.18;;;1.67;;
31424;SDS011;18054;51.572;7.372;2023-04-01T00:14:23;11.15;;;1.17;;
31424;SDS011;18054;51.572;7.372;2023-04-01T00:16:51;5.68;;;1.35;;
31424;SDS011;18054;51.572;7.372;2023-04-01T00:19:21;5.65;;;1.40;;
31424;SDS011;18054;51.572;7.372;2023-04-01T00:21:49;3.65;;;1.02;;
31424;SDS011;18054;51.572;7.372;2023-04-01T00:24:18;4.63;;;1.08;;
31424;SDS011;18054;51.572;7.372;2023-04-01T00:26:46;3.95;;;1.25;;
31424;SDS011;18054;51.572;7.372;2023-04-01T00:29:16;7.72;;;1.30;;
31424;SDS011;18054;51.572;7.372;2023-04-01T00:31:44;5.93;;;1.17;;
31424;SDS011;18054;51.572;7.372;2023-04-01T00:34:12;7.90;;;1.98;;
31424;SDS011;18054;51.572;7.372;2023-04-01T00:36:41;7.32;;;1.58;;
31424;SDS011;18054;51.572;7.372;2023-04-01T00:39:10;5.95;;;1.25;;
31424;SDS011;18054;51.572;7.372;2023-04-01T00:41:38;4.75;;;1.27;;
31424;SDS011;18054;51.572;7.372;2023-04-01T00:44:17;7.57;;;1.35;;
31424;SDS011;18054;51.572;7.372;2023-04-01T00:46:46;7.30;;;1.95;;
31424;SDS011;18054;51.572;7.372;2023-04-01T00:49:17;7.10;;;1.90;;
31424;SDS011;18054;51.572;7.372;2023-04-01T00:51:48;11.43;;;1.60;;
31424;SDS011;18054;51.572;7.372;2023-04-01T00:54:18;12.75;;;1.65;;
31424;SDS011;18054;51.572;7.372;2023-04-01T00:56:48;4.30;;;1.35;;
31424;SDS011;18054;51.572;7.372;2023-04-01T00:59:18;6.80;;;1.20;;
31424;SDS011;18054;51.572;7.372;2023-04-01T01:01:48;6.97;;;1.58;;
31424;SDS011;18054;51.572;7.372;2023-04-01T01:04:22;5.85;;;1.50;;
31424;SDS011;18054;51.572;7.372;2023-04-01T01:06:56;5.07;;;1.38;;
31424;SDS011;18054;51.572;7.372;2023-04-01T01:09:28;10.68;;;1.27;;
31424;SDS011;18054;51.572;7.372;2023-04-01T01:12:00;6.40;;;1.50;;
31424;SDS011;18054;51.572;7.372;2023-04-01T01:14:34;7.43;;;1.27;;
31424;SDS011;18054;51.572;7.372;2023-04-01T01:17:06;8.30;;;1.40;;
31424;SDS011;18054;51.572;7.372;2023-04-01T01:19:42;5.72;;;1.40;;
31424;SDS011;18054;51.572;7.372;2023-04-01T01:22:21;4.97;;;1.38;;
31424;SDS011;18054;51.572;7.372;2023-04-01T01:24:51;5.43;;;1.63;;
31424;SDS011;18054;51.572;7.372;2023-04-01T01:27:24;8.45;;;1.67;;
31424;SDS011;18054;51.572;7.372;2023-04-01T01:29:58;4.40;;;1.17;;
31424;SDS011;18054;51.572;7.372;2023-04-01T01:32:42;4.82;;;1.35;;
31424;SDS011;18054;51.572;7.372;2023-04-01T01:35:26;2.70;;;1.00;;
31424;SDS011;18054;51.572;7.372;2023-04-01T01:37:55;6.60;;;1.27;;
31424;SDS011;18054;51.572;7.372;2023-04-01T01:40:25;3.33;;;1.08;;
31424;SDS011;18054;51.572;7.372;2023-04-01T01:42:59;4.22;;;1.25;;
31424;SDS011;18054;51.572;7.372;2023-04-01T01:45:30;3.67;;;1.33;;
31424;SDS011;18054;51.572;7.372;2023-04-01T01:47:59;8.27;;;1.50;;
31424;SDS011;18054;51.572;7.372;2023-04-01T01:50:30;9.98;;;1.20;;
31424;SDS011;18054;51.572;7.372;2023-04-01T01:53:04;4.68;;;1.48;;
31424;SDS011;18054;51.572;7.372;2023-04-01T01:55:33;5.60;;;1.35;;
31424;SDS011;18054;51.572;7.372;2023-04-01T01:58:03;3.08;;;1.20;;
31424;SDS011;18054;51.572;7.372;2023-04-01T02:00:34;4.32;;;1.40;;
31424;SDS011;18054;51.572;7.372;2023-04-01T02:03:02;7.32;;;1.95;;
31424;SDS011;18054;51.572;7.372;2023-04-01T02:05:33;5.00;;;1.33;;
31424;SDS011;18054;51.572;7.372;2023-04-01T02:08:07;4.80;;;1.33;;
31424;SDS011;18054;51.572;7.372;2023-04-01T02:10:39;3.08;;;1.27;;
31424;SDS011;18054;51.572;7.372;2023-04-01T02:13:11;4.97;;;1.65;;
31424;SDS011;18054;51.572;7.372;2023-04-01T02:15:43;7.85;;;1.65;;
31424;SDS011;18054;51.572;7.372;2023-04-01T02:18:14;6.57;;;1.60;;
31424;SDS011;18054;51.572;7.372;2023-04-01T02:20:44;4.15;;;1.40;;
31424;SDS011;18054;51.572;7.372;2023-04-01T02:23:16;4.40;;;1.48;;
31424;SDS011;18054;51.572;7.372;2023-04-01T02:25:44;5.10;;;1.40;;
31424;SDS011;18054;51.572;7.372;2023-04-01T02:28:13;6.95;;;1.38;;
31424;SDS011;18054;51.572;7.372;2023-04-01T02:30:43;4.75;;;1.55;;
31424;SDS011;18054;51.572;7.372;2023-04-01T02:33:13;9.45;;;1.10;;
31424;SDS011;18054;51.572;7.372;2023-04-01T02:35:41;6.57;;;1.15;;
31424;SDS011;18054;51.572;7.372;2023-04-01T02:38:11;4.47;;;1.45;;
31424;SDS011;18054;51.572;7.372;2023-04-01T02:40:44;6.18;;;1.50;;
31424;SDS011;18054;51.572;7.372;2023-04-01T02:43:13;1.73;;;1.00;;
31424;SDS011;18054;51.572;7.372;2023-04-01T02:45:41;3.60;;;1.15;;
31424;SDS011;18054;51.572;7.372;2023-04-01T02:48:09;3.45;;;1.60;;
31424;SDS011;18054;51.572;7.372;2023-04-01T02:50:39;7.25;;;1.58;;
31424;SDS011;18054;51.572;7.372;2023-04-01T02:53:07;4.40;;;1.50;;
31424;SDS011;18054;51.572;7.372;2023-04-01T02:55:37;5.50;;;1.20;;
31424;SDS011;18054;51.572;7.372;2023-04-01T02:58:08;5.47;;;1.27;;
31424;SDS011;18054;51.572;7.372;2023-04-01T03:00:36;3.90;;;1.40;;
31424;SDS011;18054;51.572;7.372;2023-04-01T03:03:05;8.55;;;1.38;;
31424;SDS011;18054;51.572;7.372;2023-04-01T03:08:00;7.32;;;1.75;;
31424;SDS011;18054;51.572;7.372;2023-04-01T03:10:30;8.68;;;1.92;;
31424;SDS011;18054;51.572;7.372;2023-04-01T03:13:01;7.93;;;1.40;;
31424;SDS011;18054;51.572;7.372;2023-04-01T03:15:29;6.60;;;1.63;;
31424;SDS011;18054;51.572;7.372;2023-04-01T03:20:24;4.35;;;0.88;;
31424;SDS011;18054;51.572;7.372;2023-04-01T03:22:52;2.88;;;0.98;;
31424;SDS011;18054;51.572;7.372;2023-04-01T03:25:19;5.22;;;1.05;;
31424;SDS011;18054;51.572;7.372;2023-04-01T03:27:47;5.68;;;1.45;;
31424;SDS011;18054;51.572;7.372;2023-04-01T03:30:18;7.03;;;1.42;;
31424;SDS011;18054;51.572;7.372;2023-04-01T03:32:49;4.00;;;0.95;;
31424;SDS011;18054;51.572;7.372;2023-04-01T03:35:20;2.60;;;1.25;;
31424;SDS011;18054;51.572;7.372;2023-04-01T03:37:47;6.95;;;1.45;;
31424;SDS011;18054;51.572;7.372;2023-04-01T03:40:15;3.15;;;0.90;;
31424;SDS011;18054;51.572;7.372;2023-04-01T03:42:43;12.65;;;1.73;;
31424;SDS011;18054;51.572;7.372;2023-04-01T03:45:10;5.00;;;1.08;;
31424;SDS011;18054;51.572;7.372;2023-04-01T03:47:40;5.53;;;0.90;;
31424;SDS011;18054;51.572;7.372;2023-04-01T03:50:08;1.20;;;0.65;;
31424;SDS011;18054;51.572;7.372;2023-04-01T03:52:36;2.05;;;0.80;;
31424;SDS011;18054;51.572;7.372;2023-04-01T03:55:04;4.35;;;0.90;;
31424;SDS011;18054;51.572;7.372;2023-04-01T03:57:32;1.30;;;0.80;;
31424;SDS011;18054;51.572;7.372;2023-04-01T04:00:10;2.30;;;0.70;;
31424;SDS011;18054;51.572;7.372;2023-04-01T04:02:44;2.15;;;0.93;;
31424;SDS011;18054;51.572;7.372;2023-04-01T04:05:17;7.70;;;1.10;;
31424;SDS011;18054;51.572;7.372;2023-04-01T04:07:49;4.15;;;0.90;;
31424;SDS011;18054;51.572;7.372;2023-04-01T04:10:17;4.25;;;0.70;;
31424;SDS011;18054;51.572;7.372;2023-04-01T04:12:44;2.53;;;0.85;;
31424;SDS011;18054;51.572;7.372;2023-04-01T04:15:12;4.78;;;1.30;;
31424;SDS011;18054;51.572;7.372;2023-04-01T04:17:41;5.75;;;1.17;;
31424;SDS011;18054;51.572;7.372;2023-04-01T04:20:10;4.80;;;2.40;;
31424;SDS011;18054;51.572;7.372;2023-04-01T04:22:38;2.25;;;1.10;;
31424;SDS011;18054;51.572;7.372;2023-04-01T04:25:07;2.03;;;0.98;;
31424;SDS011;18054;51.572;7.372;2023-04-01T04:27:36;2.88;;;1.13;;
31424;SDS011;18054;51.572;7.372;2023-04-01T04:30:08;6.38;;;1.20;;
31424;SDS011;18054;51.572;7.372;2023-04-01T04:32:36;4.32;;;1.23;;
31424;SDS011;18054;51.572;7.372;2023-04-01T04:37:34;3.33;;;1.20;;
31424;SDS011;18054;51.572;7.372;2023-04-01T04:40:02;4.07;;;1.27;;
31424;SDS011;18054;51.572;7.372;2023-04-01T04:42:32;4.05;;;0.95;;
31424;SDS011;18054;51.572;7.372;2023-04-01T04:45:05;3.10;;;1.00;;
31424;SDS011;18054;51.572;7.372;2023-04-01T04:47:40;2.03;;;0.95;;
31424;SDS011;18054;51.572;7.372;2023-04-01T04:50:08;2.58;;;1.13;;
31424;SDS011;18054;51.572;7.372;2023-04-01T04:52:40;3.42;;;1.10;;
31424;SDS011;18054;51.572;7.372;2023-04-01T04:55:10;4.55;;;1.15;;
31424;SDS011;18054;51.572;7.372;2023-04-01T04:57:41;4.35;;;1.38;;
31424;SDS011;18054;51.572;7.372;2023-04-01T05:00:11;4.78;;;1.35;;
31424;SDS011;18054;51.572;7.372;2023-04-01T05:02:55;6.22;;;2.05;;
31424;SDS011;18054;51.572;7.372;2023-04-01T05:05:25;3.13;;;1.20;;
31424;SDS011;18054;51.572;7.372;2023-04-01T05:07:57;9.13;;;1.70;;
31424;SDS011;18054;51.572;7.372;2023-04-01T05:10:27;5.30;;;1.50;;
31424;SDS011;18054;51.572;7.372;2023-04-01T05:12:54;2.28;;;1.35;;
31424;SDS011;18054;51.572;7.372;2023-04-01T05:17:50;2.78;;;1.13;;
31424;SDS011;18054;51.572;7.372;2023-04-01T05:20:18;5.85;;;1.38;;
31424;SDS011;18054;51.572;7.372;2023-04-01T05:22:46;2.42;;;1.17;;
31424;SDS011;18054;51.572;7.372;2023-04-01T05:25:15;4.75;;;1.45;;
31424;SDS011;18054;51.572;7.372;2023-04-01T05:27:43;4.03;;;2.28;;
31424;SDS011;18054;51.572;7.372;2023-04-01T05:32:57;2.03;;;1.08;;
31424;SDS011;18054;51.572;7.372;2023-04-01T05:35:27;2.63;;;1.30;;
31424;SDS011;18054;51.572;7.372;2023-04-01T05:37:57;4.10;;;1.27;;
31424;SDS011;18054;51.572;7.372;2023-04-01T05:40:29;6.45;;;1.83;;
31424;SDS011;18054;51.572;7.372;2023-04-01T05:42:57;5.05;;;1.17;;
31424;SDS011;18054;51.572;7.372;2023-04-01T05:45:24;3.40;;;1.30;;
31424;SDS011;18054;51.572;7.372;2023-04-01T05:48:28;2.72;;;1.02;;
31424;SDS011;18054;51.572;7.372;2023-04-01T05:53:34;3.03;;;1.10;;
31424;SDS011;18054;51.572;7.372;2023-04-01T05:56:03;4.82;;;2.42;;
31424;SDS011;18054;51.572;7.372;2023-04-01T05:58:36;2.42;;;1.10;;
31424;SDS011;18054;51.572;7.372;2023-04-01T06:01:04;1.92;;;1.00;;
31424;SDS011;18054;51.572;7.372;2023-04-01T06:03:39;3.25;;;1.33;;
31424;SDS011;18054;51.572;7.372;2023-04-01T06:06:09;5.95;;;1.50;;
31424;SDS011;18054;51.572;7.372;2023-04-01T06:08:38;3.35;;;1.40;;
31424;SDS011;18054;51.572;7.372;2023-04-01T06:11:12;5.85;;;1.30;;
31424;SDS011;18054;51.572;7.372;2023-04-01T06:13:47;4.30;;;1.55;;
31424;SDS011;18054;51.572;7.372;2023-04-01T06:18:50;2.05;;;1.13;;
31424;SDS011;18054;51.572;7.372;2023-04-01T06:21:31;4.68;;;1.95;;
31424;SDS011;18054;51.572;7.372;2023-04-01T06:24:07;4.15;;;1.30;;
31424;SDS011;18054;51.572;7.372;2023-04-01T06:26:43;2.80;;;1.58;;
31424;SDS011;18054;51.572;7.372;2023-04-01T06:29:21;2.65;;;1.40;;
31424;SDS011;18054;51.572;7.372;2023-04-01T06:31:59;4.60;;;1.70;;
31424;SDS011;18054;51.572;7.372;2023-04-01T06:34:34;5.90;;;1.80;;
31424;SDS011;18054;51.572;7.372;2023-04-01T06:37:11;5.00;;;1.33;;
31424;SDS011;18054;51.572;7.372;2023-04-01T06:39:48;3.30;;;1.65;;
31424;SDS011;18054;51.572;7.372;2023-04-01T06:42:31;6.30;;;1.65;;
31424;SDS011;18054;51.572;7.372;2023-04-01T06:45:09;10.63;;;1.65;;
31424;SDS011;18054;51.572;7.372;2023-04-01T06:48:03;4.85;;;2.03;;
31424;SDS011;18054;51.572;7.372;2023-04-01T06:50:56;9.65;;;2.08;;
31424;SDS011;18054;51.572;7.372;2023-04-01T06:53:46;5.80;;;2.38;;
31424;SDS011;18054;51.572;7.372;2023-04-01T06:57:02;6.65;;;2.10;;
31424;SDS011;18054;51.572;7.372;2023-04-01T06:59:33;2.47;;;1.45;;
31424;SDS011;18054;51.572;7.372;2023-04-01T07:02:04;4.63;;;1.52;;
31424;SDS011;18054;51.572;7.372;2023-04-01T07:04:34;8.52;;;1.67;;
31424;SDS011;18054;51.572;7.372;2023-04-01T07:07:05;4.03;;;1.23;;
31424;SDS011;18054;51.572;7.372;2023-04-01T07:09:46;7.78;;;1.60;;
31424;SDS011;18054;51.572;7.372;2023-04-01T07:12:33;3.08;;;1.80;;
31424;SDS011;18054;51.572;7.372;2023-04-01T07:15:26;6.97;;;1.80;;
31424;SDS011;18054;51.572;7.372;2023-04-01T07:17:58;3.85;;;1.67;;
31424;SDS011;18054;51.572;7.372;2023-04-01T07:20:35;3.65;;;1.45;;
31424;SDS011;18054;51.572;7.372;2023-04-01T07:23:08;3.55;;;1.60;;
31424;SDS011;18054;51.572;7.372;2023-04-01T07:25:58;3.30;;;1.65;;
31424;SDS011;18054;51.572;7.372;2023-04-01T07:28:33;2.60;;;1.55;;
31424;SDS011;18054;51.572;7.372;2023-04-01T07:31:35;3.28;;;1.75;;
31424;SDS011;18054;51.572;7.372;2023-04-01T07:34:09;2.75;;;1.52;;
31424;SDS011;18054;51.572;7.372;2023-04-01T07:36:39;3.50;;;1.42;;
31424;SDS011;18054;51.572;7.372;2023-04-01T07:39:12;5.22;;;1.80;;
31424;SDS011;18054;51.572;7.372;2023-04-01T07:42:01;5.53;;;2.40;;
31424;SDS011;18054;51.572;7.372;2023-04-01T07:44:34;6.15;;;2.35;;
31424;SDS011;18054;51.572;7.372;2023-04-01T07:47:09;5.72;;;2.30;;
31424;SDS011;18054;51.572;7.372;2023-04-01T07:49:44;3.75;;;1.98;;
31424;SDS011;18054;51.572;7.372;2023-04-01T07:52:19;6.28;;;2.20;;
31424;SDS011;18054;51.572;7.372;2023-04-01T07:54:57;3.72;;;2.17;;
31424;SDS011;18054;51.572;7.372;2023-04-01T07:57:27;3.70;;;1.80;;
31424;SDS011;18054;51.572;7.372;2023-04-01T07:59:58;6.50;;;1.98;;
31424;SDS011;18054;51.572;7.372;2023-04-01T08:02:44;3.70;;;2.00;;
31424;SDS011;18054;51.572;7.372;2023-04-01T08:05:19;4.90;;;2.38;;
31424;SDS011;18054;51.572;7.372;2023-04-01T08:07:50;4.65;;;2.40;;
31424;SDS011;18054;51.572;7.372;2023-04-01T08:10:48;8.38;;;2.17;;
31424;SDS011;18054;51.572;7.372;2023-04-01T08:13:42;5.15;;;2.65;;
31424;SDS011;18054;51.572;7.372;2023-04-01T08:16:31;6.13;;;2.95;;
31424;SDS011;18054;51.572;7.372;2023-04-01T08:19:09;6.05;;;2.42;;
31424;SDS011;18054;51.572;7.372;2023-04-01T08:21:41;4.68;;;2.50;;
31424;SDS011;18054;51.572;7.372;2023-04-01T08:24:11;4.90;;;2.72;;
31424;SDS011;18054;51.572;7.372;2023-04-01T08:26:41;6.15;;;2.80;;
31424;SDS011;18054;51.572;7.372;2023-04-01T08:29:13;6.20;;;2.58;;
31424;SDS011;18054;51.572;7.372;2023-04-01T08:31:43;9.07;;;2.45;;
31424;SDS011;18054;51.572;7.372;2023-04-01T08:34:17;5.05;;;2.50;;
31424;SDS011;18054;51.572;7.372;2023-04-01T08:36:49;4.78;;;2.72;;
31424;SDS011;18054;51.572;7.372;2023-04-01T08:39:21;4.50;;;2.65;;
31424;SDS011;18054;51.572;7.372;2023-04-01T08:45:18;6.88;;;3.03;;
31424;SDS011;18054;51.572;7.372;2023-04-01T08:48:13;4.90;;;2.83;;
31424;SDS011;18054;51.572;7.372;2023-04-01T08:51:04;5.15;;;2.83;;
31424;SDS011;18054;51.572;7.372;2023-04-01T08:53:40;5.17;;;3.00;;
31424;SDS011;18054;51.572;7.372;2023-04-01T08:56:14;5.32;;;2.95;;
31424;SDS011;18054;51.572;7.372;2023-04-01T08:58:52;7.22;;;3.60;;
31424;SDS011;18054;51.572;7.372;2023-04-01T09:01:32;7.38;;;3.45;;
31424;SDS011;18054;51.572;7.372;2023-04-01T09:04:14;5.57;;;3.22;;
31424;SDS011;18054;51.572;7.372;2023-04-01T09:06:50;6.80;;;3.25;;
31424;SDS011;18054;51.572;7.372;2023-04-01T09:09:32;8.73;;;4.38;;
31424;SDS011;18054;51.572;7.372;2023-04-01T09:15:11;7.05;;;4.13;;
31424;SDS011;18054;51.572;7.372;2023-04-01T09:20:38;11.48;;;5.05;;
31424;SDS011;18054;51.572;7.372;2023-04-01T09:23:15;6.97;;;4.15;;
31424;SDS011;18054;51.572;7.372;2023-04-01T09:28:14;8.82;;;5.00;;
31424;SDS011;18054;51.572;7.372;2023-04-01T09:36:57;12.52;;;5.57;;
31424;SDS011;18054;51.572;7.372;2023-04-01T09:39:35;11.15;;;5.95;;
31424;SDS011;18054;51.572;7.372;2023-04-01T09:42:07;9.70;;;5.65;;
31424;SDS011;18054;51.572;7.372;2023-04-01T09:44:41;8.75;;;4.80;;
31424;SDS011;18054;51.572;7.372;2023-04-01T09:47:16;9.77;;;6.03;;
31424;SDS011;18054;51.572;7.372;2023-04-01T09:49:53;10.32;;;6.38;;
31424;SDS011;18054;51.572;7.372;2023-04-01T09:52:24;11.77;;;6.10;;
31424;SDS011;18054;51.572;7.372;2023-04-01T09:55:12;9.70;;;6.13;;
31424;SDS011;18054;51.572;7.372;2023-04-01T09:57:51;13.68;;;6.75;;
31424;SDS011;18054;51.572;7.372;2023-04-01T10:00:49;10.00;;;6.68;;
31424;SDS011;18054;51.572;7.372;2023-04-01T10:03:31;13.40;;;6.68;;
31424;SDS011;18054;51.572;7.372;2023-04-01T10:09:04;14.07;;;7.63;;
31424;SDS011;18054;51.572;7.372;2023-04-01T10:14:36;13.97;;;7.97;;
31424;SDS011;18054;51.572;7.372;2023-04-01T10:25:29;13.10;;;8.55;;
31424;SDS011;18054;51.572;7.372;2023-04-01T10:28:25;14.07;;;8.85;;
31424;SDS011;18054;51.572;7.372;2023-04-01T10:31:28;12.18;;;7.50;;
31424;SDS011;18054;51.572;7.372;2023-04-01T10:34:05;13.38;;;7.30;;
31424;SDS011;18054;51.572;7.372;2023-04-01T10:39:34;13.05;;;8.27;;
31424;SDS011;18054;51.572;7.372;2023-04-01T10:45:57;11.75;;;8.05;;
31424;SDS011;18054;51.572;7.372;2023-04-01T10:48:52;11.48;;;7.13;;
31424;SDS011;18054;51.572;7.372;2023-04-01T10:51:31;12.57;;;7.93;;
31424;SDS011;18054;51.572;7.372;2023-04-01T10:54:15;14.50;;;6.75;;
31424;SDS011;18054;51.572;7.372;2023-04-01T10:56:54;14.70;;;6.15;;
31424;SDS011;18054;51.572;7.372;2023-04-01T10:59:36;11.63;;;6.50;;
31424;SDS011;18054;51.572;7.372;2023-04-01T11:08:50;13.77;;;7.07;;
31424;SDS011;18054;51.572;7.372;2023-04-01T11:11:35;16.70;;;6.75;;
31424;SDS011;18054;51.572;7.372;2023-04-01T11:14:27;13.23;;;6.68;;
31424;SDS011;18054;51.572;7.372;2023-04-01T11:17:03;10.02;;;6.00;;
31424;SDS011;18054;51.572;7.372;2023-04-01T11:22:32;10.05;;;5.70;;
31424;SDS011;18054;51.572;7.372;2023-04-01T11:28:23;11.32;;;6.45;;
31424;SDS011;18054;51.572;7.372;2023-04-01T11:33:34;18.30;;;6.80;;
31424;SDS011;18054;51.572;7.372;2023-04-01T11:38:55;9.38;;;6.07;;
31424;SDS011;18054;51.572;7.372;2023-04-01T11:41:45;8.85;;;6.07;;
31424;SDS011;18054;51.572;7.372;2023-04-01T11:44:48;10.77;;;6.20;;
31424;SDS011;18054;51.572;7.372;2023-04-01T11:47:35;10.15;;;6.93;;
31424;SDS011;18054;51.572;7.372;2023-04-01T11:50:13;15.88;;;7.45;;
31424;SDS011;18054;51.572;7.372;2023-04-01T11:53:09;16.98;;;7.82;;
31424;SDS011;18054;51.572;7.372;2023-04-01T11:55:41;14.77;;;8.90;;
31424;SDS011;18054;51.572;7.372;2023-04-01T11:58:28;19.70;;;10.55;;
31424;SDS011;18054;51.572;7.372;2023-04-01T12:01:09;16.75;;;10.43;;
31424;SDS011;18054;51.572;7.372;2023-04-01T12:03:43;16.70;;;10.73;;
31424;SDS011;18054;51.572;7.372;2023-04-01T12:06:14;21.83;;;11.10;;
31424;SDS011;18054;51.572;7.372;2023-04-01T12:08:50;20.50;;;12.73;;
31424;SDS011;18054;51.572;7.372;2023-04-01T12:11:22;20.80;;;11.90;;
31424;SDS011;18054;51.572;7.372;2023-04-01T12:13:53;23.33;;;13.00;;
31424;SDS011;18054;51.572;7.372;2023-04-01T12:16:28;19.65;;;11.82;;
31424;SDS011;18054;51.572;7.372;2023-04-01T12:18:59;19.73;;;10.77;;
31424;SDS011;18054;51.572;7.372;2023-04-01T12:21:31;19.25;;;10.07;;
31424;SDS011;18054;51.572;7.372;2023-04-01T12:24:08;11.93;;;8.30;;
31424;SDS011;18054;51.572;7.372;2023-04-01T12:26:41;14.88;;;7.97;;
31424;SDS011;18054;51.572;7.372;2023-04-01T12:29:22;14.85;;;7.85;;
31424;SDS011;18054;51.572;7.372;2023-04-01T12:31:57;15.65;;;8.40;;
31424;SDS011;18054;51.572;7.372;2023-04-01T12:34:33;11.75;;;7.50;;
31424;SDS011;18054;51.572;7.372;2023-04-01T12:37:07;14.25;;;7.75;;
31424;SDS011;18054;51.572;7.372;2023-04-01T12:39:47;11.23;;;6.85;;
31424;SDS011;18054;51.572;7.372;2023-04-01T12:42:19;13.52;;;7.15;;
31424;SDS011;18054;51.572;7.372;2023-04-01T12:45:07;13.55;;;7.72;;
31424;SDS011;18054;51.572;7.372;2023-04-01T12:47:48;10.60;;;6.90;;
31424;SDS011;18054;51.572;7.372;2023-04-01T12:50:24;13.65;;;8.38;;
31424;SDS011;18054;51.572;7.372;2023-04-01T12:53:07;18.23;;;8.73;;
31424;SDS011;18054;51.572;7.372;2023-04-01T12:55:41;12.77;;;8.65;;
31424;SDS011;18054;51.572;7.372;2023-04-01T12:58:20;17.45;;;9.90;;
31424;SDS011;18054;51.572;7.372;2023-04-01T13:00:56;18.20;;;10.38;;
31424;SDS011;18054;51.572;7.372;2023-04-01T13:09:19;24.75;;;12.45;;
31424;SDS011;18054;51.572;7.372;2023-04-01T13:11:52;17.40;;;10.70;;
31424;SDS011;18054;51.572;7.372;2023-04-01T13:14:30;20.60;;;11.48;;
31424;SDS011;18054;51.572;7.372;2023-04-01T13:17:02;20.70;;;12.32;;
31424;SDS011;18054;51.572;7.372;2023-04-01T13:19:35;18.45;;;10.82;;
31424;SDS011;18054;51.572;7.372;2023-04-01T13:22:05;23.88;;;11.25;;
31424;SDS011;18054;51.572;7.372;2023-04-01T13:24:39;26.45;;;10.80;;
31424;SDS011;18054;51.572;7.372;2023-04-01T13:27:09;22.05;;;9.18;;
31424;SDS011;18054;51.572;7.372;2023-04-01T13:29:40;16.00;;;8.48;;
31424;SDS011;18054;51.572;7.372;2023-04-01T13:32:14;15.55;;;8.60;;
31424;SDS011;18054;51.572;7.372;2023-04-01T13:34:52;18.60;;;8.10;;
31424;SDS011;18054;51.572;7.372;2023-04-01T13:37:37;14.70;;;7.82;;
31424;SDS011;18054;51.572;7.372;2023-04-01T13:40:19;16.27;;;7.43;;
31424;SDS011;18054;51.572;7.372;2023-04-01T13:42:49;15.30;;;7.45;;
31424;SDS011;18054;51.572;7.372;2023-04-01T13:45:19;14.93;;;7.20;;
31424;SDS011;18054;51.572;7.372;2023-04-01T13:47:55;11.85;;;6.47;;
31424;SDS011;18054;51.572;7.372;2023-04-01T13:50:31;13.18;;;6.47;;
31424;SDS011;18054;51.572;7.372;2023-04-01T13:53:04;15.52;;;6.60;;
31424;SDS011;18054;51.572;7.372;2023-04-01T13:55:46;12.93;;;6.60;;
31424;SDS011;18054;51.572;7.372;2023-04-01T13:58:22;16.10;;;8.38;;
31424;SDS011;18054;51.572;7.372;2023-04-01T14:00:56;19.67;;;6.80;;
31424;SDS011;18054;51.572;7.372;2023-04-01T14:03:30;13.57;;;6.82;;
31424;SDS011;18054;51.572;7.372;2023-04-01T14:06:12;19.27;;;7.32;;
31424;SDS011;18054;51.572;7.372;2023-04-01T14:08:48;14.25;;;7.28;;
31424;SDS011;18054;51.572;7.372;2023-04-01T14:11:25;14.88;;;7.75;;
31424;SDS011;18054;51.572;7.372;2023-04-01T14:13:58;18.65;;;9.07;;
31424;SDS011;18054;51.572;7.372;2023-04-01T14:16:44;10.20;;;5.85;;
31424;SDS011;18054;51.572;7.372;2023-04-01T14:19:19;11.32;;;6.13;;
31424;SDS011;18054;51.572;7.372;2023-04-01T14:21:52;9.53;;;4.93;;
31424;SDS011;18054;51.572;7.372;2023-04-01T14:24:31;9.80;;;4.97;;
31424;SDS011;18054;51.572;7.372;2023-04-01T14:29:59;11.25;;;5.97;;
31424;SDS011;18054;51.572;7.372;2023-04-01T14:32:34;12.90;;;6.93;;
31424;SDS011;18054;51.572;7.372;2023-04-01T14:35:17;13.70;;;8.35;;
31424;SDS011;18054;51.572;7.372;2023-04-01T14:37:55;12.52;;;7.93;;
31424;SDS011;18054;51.572;7.372;2023-04-01T14:40:26;15.10;;;9.23;;
31424;SDS011;18054;51.572;7.372;2023-04-01T14:43:10;20.45;;;9.35;;
31424;SDS011;18054;51.572;7.372;2023-04-01T14:45:46;16.48;;;8.88;;
31424;SDS011;18054;51.572;7.372;2023-04-01T14:48:25;17.48;;;9.93;;
31424;SDS011;18054;51.572;7.372;2023-04-01T14:50:57;22.23;;;11.27;;
31424;SDS011;18054;51.572;7.372;2023-04-01T14:53:33;22.52;;;11.40;;
31424;SDS011;18054;51.572;7.372;2023-04-01T14:56:04;18.92;;;12.02;;
31424;SDS011;18054;51.572;7.372;2023-04-01T14:58:40;19.80;;;12.38;;
31424;SDS011;18054;51.572;7.372;2023-04-01T15:01:13;20.25;;;11.77;;
31424;SDS011;18054;51.572;7.372;2023-04-01T15:03:47;18.00;;;10.25;;
31424;SDS011;18054;51.572;7.372;2023-04-01T15:06:42;19.38;;;10.70;;
31424;SDS011;18054;51.572;7.372;2023-04-01T15:09:14;14.70;;;9.73;;
31424;SDS011;18054;51.572;7.372;2023-04-01T15:11:51;19.20;;;12.10;;
31424;SDS011;18054;51.572;7.372;2023-04-01T15:14:27;15.75;;;9.80;;
31424;SDS011;18054;51.572;7.372;2023-04-01T15:17:16;19.70;;;11.18;;
31424;SDS011;18054;51.572;7.372;2023-04-01T15:19:55;15.35;;;10.02;;
31424;SDS011;18054;51.572;7.372;2023-04-01T15:22:40;18.45;;;10.82;;
31424;SDS011;18054;51.572;7.372;2023-04-01T15:25:17;17.23;;;9.88;;
31424;SDS011;18054;51.572;7.372;2023-04-01T15:27:48;23.63;;;10.80;;
31424;SDS011;18054;51.572;7.372;2023-04-01T15:30:25;16.40;;;9.65;;
31424;SDS011;18054;51.572;7.372;2023-04-01T15:32:58;22.63;;;11.15;;
31424;SDS011;18054;51.572;7.372;2023-04-01T15:35:32;17.42;;;10.07;;
31424;SDS011;18054;51.572;7.372;2023-04-01T15:38:05;16.75;;;10.32;;
31424;SDS011;18054;51.572;7.372;2023-04-01T15:40:36;19.83;;;11.48;;
31424;SDS011;18054;51.572;7.372;2023-04-01T15:43:12;22.25;;;10.68;;
31424;SDS011;18054;51.572;7.372;2023-04-01T15:45:49;19.77;;;11.80;;
31424;SDS011;18054;51.572;7.372;2023-04-01T15:48:23;23.15;;;12.00;;
31424;SDS011;18054;51.572;7.372;2023-04-01T15:50:58;22.95;;;13.07;;
31424;SDS011;18054;51.572;7.372;2023-04-01T15:53:35;27.58;;;13.82;;
31424;SDS011;18054;51.572;7.372;2023-04-01T15:56:10;26.00;;;14.07;;
31424;SDS011;18054;51.572;7.372;2023-04-01T15:58:44;23.50;;;12.65;;
31424;SDS011;18054;51.572;7.372;2023-04-01T16:01:15;22.73;;;13.27;;
31424;SDS011;18054;51.572;7.372;2023-04-01T16:03:48;21.83;;;12.13;;
31424;SDS011;18054;51.572;7.372;2023-04-01T16:06:29;19.02;;;11.38;;
31424;SDS011;18054;51.572;7.372;2023-04-01T16:09:02;23.02;;;13.07;;
31424;SDS011;18054;51.572;7.372;2023-04-01T16:11:39;20.55;;;13.00;;
31424;SDS011;18054;51.572;7.372;2023-04-01T16:14:12;26.00;;;14.45;;
31424;SDS011;18054;51.572;7.372;2023-04-01T16:16:45;23.48;;;14.60;;
31424;SDS011;18054;51.572;7.372;2023-04-01T16:19:23;26.30;;;15.15;;
31424;SDS011;18054;51.572;7.372;2023-04-01T16:21:54;29.38;;;14.50;;
31424;SDS011;18054;51.572;7.372;2023-04-01T16:24:32;26.80;;;16.50;;
31424;SDS011;18054;51.572;7.372;2023-04-01T16:27:09;27.88;;;16.80;;
31424;SDS011;18054;51.572;7.372;2023-04-01T16:29:39;29.50;;;16.80;;
31424;SDS011;18054;51.572;7.372;2023-04-01T16:34:56;41.30;;;19.17;;
31424;SDS011;18054;51.572;7.372;2023-04-01T16:37:29;33.80;;;18.65;;
31424;SDS011;18054;51.572;7.372;2023-04-01T16:40:02;39.92;;;21.35;;
31424;SDS011;18054;51.572;7.372;2023-04-01T16:42:39;34.53;;;19.27;;
31424;SDS011;18054;51.572;7.372;2023-04-01T16:45:15;37.42;;;18.77;;
31424;SDS011;18054;51.572;7.372;2023-04-01T16:47:46;39.03;;;18.92;;
31424;SDS011;18054;51.572;7.372;2023-04-01T16:50:20;32.88;;;13.48;;
31424;SDS011;18054;51.572;7.372;2023-04-01T16:52:59;24.35;;;11.88;;